Time;durP1;ratioP1;P1;durP2;ratioP2;P2;SDS_P1;SDS_P2;PMS_P1;PMS_P2;Temp;Humidity;BMP_temperature;BMP_pressure;BME280_temperature;BME280_humidity;BME280_pressure;Samples;Min_cycle;Max_cycle;Signal;HPM_P1;HPM_P2
2022/03/21 00:01:25;;;;;;;25.52;7.72;;;;;;;;;;5073696;28;20209;-68
2022/03/21 00:03:54;;;;;;;32.08;9.15;;;;;;;;;;5073334;28;20204;-67
2022/03/21 00:06:21;;;;;;;28.08;8.80;;;;;;;;;;5073186;28;20709;-67
2022/03/21 00:08:48;;;;;;;27.88;9.93;;;;;;;;;;5073494;28;20213;-68
2022/03/21 00:11:18;;;;;;;28.08;7.95;;;;;;;;;;5073038;28;20708;-68
2022/03/21 00:13:46;;;;;;;30.10;9.73;;;;;;;;;;5073659;28;20220;-67
2022/03/21 00:16:13;;;;;;;32.15;10.63;;;;;;;;;;5073297;28;20208;-68
2022/03/21 00:18:40;;;;;;;40.70;10.52;;;;;;;;;;5073132;28;20231;-67
2022/03/21 00:21:08;;;;;;;33.17;9.25;;;;;;;;;;5073218;28;20644;-70
2022/03/21 00:23:36;;;;;;;28.42;8.93;;;;;;;;;;5072971;28;20679;-68
2022/03/21 00:26:04;;;;;;;27.27;7.28;;;;;;;;;;5073456;28;20231;-70
2022/03/21 00:28:33;;;;;;;26.75;8.30;;;;;;;;;;5072998;28;20205;-67
2022/03/21 00:31:01;;;;;;;23.38;7.63;;;;;;;;;;5072945;28;20209;-68
2022/03/21 00:33:29;;;;;;;32.05;9.50;;;;;;;;;;5072990;28;20232;-69
2022/03/21 00:35:56;;;;;;;31.58;9.27;;;;;;;;;;5072933;28;20212;-68
2022/03/21 00:38:24;;;;;;;28.25;9.65;;;;;;;;;;5066378;28;20202;-67
2022/03/21 00:40:51;;;;;;;27.08;7.85;;;;;;;;;;5072940;28;20211;-67
2022/03/21 00:43:21;;;;;;;24.65;7.28;;;;;;;;;;5072616;28;20205;-68
2022/03/21 00:45:50;;;;;;;25.45;6.95;;;;;;;;;;5072861;28;20225;-69
2022/03/21 00:48:18;;;;;;;28.02;7.28;;;;;;;;;;5072660;28;20258;-68
2022/03/21 00:50:45;;;;;;;28.88;9.13;;;;;;;;;;5072589;28;20208;-69
2022/03/21 00:53:12;;;;;;;25.38;7.82;;;;;;;;;;5072310;28;20269;-68
2022/03/21 00:55:41;;;;;;;29.77;7.75;;;;;;;;;;5072463;28;20212;-69
2022/03/21 00:58:09;;;;;;;29.65;10.00;;;;;;;;;;5072459;28;20223;-69
2022/03/21 01:00:36;;;;;;;23.83;6.72;;;;;;;;;;5072486;28;20615;-68
2022/03/21 01:03:06;;;;;;;23.67;6.43;;;;;;;;;;5072125;28;20215;-70
2022/03/21 01:05:33;;;;;;;39.65;9.77;;;;;;;;;;5072338;28;20247;-70
2022/03/21 01:08:02;;;;;;;32.10;8.40;;;;;;;;;;5072664;28;20218;-69
2022/03/21 01:10:29;;;;;;;28.30;6.05;;;;;;;;;;5073465;28;20258;-69
2022/03/21 01:12:58;;;;;;;30.05;8.88;;;;;;;;;;5072047;28;20224;-69
2022/03/21 01:15:26;;;;;;;29.42;7.88;;;;;;;;;;5072106;28;20208;-68
2022/03/21 01:17:54;;;;;;;34.17;10.10;;;;;;;;;;5071961;28;20217;-71
2022/03/21 01:20:24;;;;;;;29.55;8.80;;;;;;;;;;5071908;28;20591;-69
2022/03/21 01:22:51;;;;;;;28.05;7.53;;;;;;;;;;5072458;28;20216;-69
2022/03/21 01:25:19;;;;;;;25.10;6.78;;;;;;;;;;5071657;28;20212;-70
2022/03/21 01:27:47;;;;;;;25.25;7.30;;;;;;;;;;5072054;28;20209;-69
2022/03/21 01:30:15;;;;;;;34.50;7.53;;;;;;;;;;5071242;28;20590;-70
2022/03/21 01:32:43;;;;;;;26.83;7.57;;;;;;;;;;5071810;28;20208;-70
2022/03/21 01:35:11;;;;;;;33.28;8.40;;;;;;;;;;5071732;28;20300;-68
2022/03/21 01:37:40;;;;;;;29.85;8.35;;;;;;;;;;5071853;28;20217;-69
2022/03/21 01:40:08;;;;;;;28.77;8.52;;;;;;;;;;5071603;28;20232;-69
2022/03/21 01:42:36;;;;;;;22.77;7.30;;;;;;;;;;5071673;28;20211;-69
2022/03/21 01:45:05;;;;;;;22.50;7.80;;;;;;;;;;5071346;28;20240;-69
2022/03/21 01:47:35;;;;;;;30.92;7.78;;;;;;;;;;5064863;28;20211;-69
2022/03/21 01:50:02;;;;;;;31.60;8.65;;;;;;;;;;5071394;28;20208;-68
2022/03/21 01:52:30;;;;;;;26.90;8.18;;;;;;;;;;5071636;28;20204;-69
2022/03/21 01:57:44;;;;;;;28.98;8.85;;;;;;;;;;5071400;28;20224;-69
2022/03/21 02:00:12;;;;;;;35.92;9.02;;;;;;;;;;5071209;28;20228;-68
2022/03/21 02:02:41;;;;;;;22.85;6.70;;;;;;;;;;5071701;28;20285;-68
2022/03/21 02:05:09;;;;;;;22.92;8.57;;;;;;;;;;5071253;28;20327;-68
2022/03/21 02:07:36;;;;;;;26.73;7.00;;;;;;;;;;5071068;28;20205;-69
2022/03/21 02:10:08;;;;;;;39.55;10.40;;;;;;;;;;5071149;28;20303;-68
2022/03/21 02:12:36;;;;;;;51.63;13.38;;;;;;;;;;5070983;28;20729;-69
2022/03/21 02:15:04;;;;;;;34.80;7.63;;;;;;;;;;5071072;28;20295;-68
2022/03/21 02:17:32;;;;;;;33.80;9.50;;;;;;;;;;5071172;28;20215;-69
2022/03/21 02:20:03;;;;;;;23.73;7.47;;;;;;;;;;5070878;28;20238;-69
2022/03/21 02:22:33;;;;;;;27.17;8.10;;;;;;;;;;5070863;28;20204;-69
2022/03/21 02:25:11;;;;;;;24.25;7.35;;;;;;;;;;5071193;28;20204;-69
2022/03/21 02:27:40;;;;;;;24.48;6.70;;;;;;;;;;5070769;28;20205;-68
2022/03/21 02:30:08;;;;;;;27.40;7.60;;;;;;;;;;5070819;28;20213;-68
2022/03/21 02:32:37;;;;;;;26.25;7.57;;;;;;;;;;5070830;28;20216;-68
2022/03/21 02:35:07;;;;;;;22.83;5.93;;;;;;;;;;5070517;28;20212;-69
2022/03/21 02:37:34;;;;;;;25.40;6.65;;;;;;;;;;5070916;28;20224;-69
2022/03/21 02:40:02;;;;;;;31.50;6.82;;;;;;;;;;5070874;28;20224;-68
2022/03/21 02:42:29;;;;;;;34.60;8.60;;;;;;;;;;5070752;28;20204;-69
2022/03/21 02:44:58;;;;;;;32.95;7.07;;;;;;;;;;5070899;28;20585;-69
2022/03/21 02:47:26;;;;;;;24.42;6.95;;;;;;;;;;5070640;28;20209;-68
2022/03/21 02:49:54;;;;;;;25.90;7.53;;;;;;;;;;5070739;28;20212;-68
2022/03/21 02:52:24;;;;;;;27.65;7.60;;;;;;;;;;5071672;28;20303;-69
2022/03/21 02:54:52;;;;;;;23.20;6.95;;;;;;;;;;5070985;28;20211;-68
2022/03/21 02:57:19;;;;;;;27.35;7.20;;;;;;;;;;5070328;28;20212;-69
2022/03/21 02:59:47;;;;;;;29.42;5.80;;;;;;;;;;5070402;28;20232;-68
2022/03/21 03:02:15;;;;;;;23.33;6.70;;;;;;;;;;5070464;28;20205;-69
2022/03/21 03:04:43;;;;;;;25.85;7.50;;;;;;;;;;5070452;28;20208;-69
2022/03/21 03:07:11;;;;;;;36.50;7.28;;;;;;;;;;5070486;28;20574;-69
2022/03/21 03:09:40;;;;;;;30.45;9.05;;;;;;;;;;5070592;28;20278;-68
2022/03/21 03:12:09;;;;;;;24.40;6.25;;;;;;;;;;5063396;28;20228;-68
2022/03/21 03:14:36;;;;;;;24.10;5.82;;;;;;;;;;5070460;28;20204;-68
2022/03/21 03:17:04;;;;;;;28.60;7.00;;;;;;;;;;5070330;28;20213;-70
2022/03/21 03:19:34;;;;;;;21.13;7.25;;;;;;;;;;5070724;28;20223;-69
2022/03/21 03:22:02;;;;;;;27.90;6.10;;;;;;;;;;5070392;28;20215;-68
2022/03/21 03:24:29;;;;;;;26.05;7.05;;;;;;;;;;5070380;28;20215;-69
2022/03/21 03:26:57;;;;;;;31.23;9.45;;;;;;;;;;5070142;28;20219;-69
2022/03/21 03:29:24;;;;;;;40.13;9.02;;;;;;;;;;5070488;28;20213;-70
2022/03/21 03:31:52;;;;;;;32.15;8.38;;;;;;;;;;5070552;28;20204;-69
2022/03/21 03:34:19;;;;;;;27.67;7.50;;;;;;;;;;5070357;28;20582;-70
2022/03/21 03:36:48;;;;;;;24.38;8.15;;;;;;;;;;5070194;28;20223;-68
2022/03/21 03:39:15;;;;;;;26.50;8.02;;;;;;;;;;5069946;28;20205;-68
2022/03/21 03:41:43;;;;;;;26.33;7.97;;;;;;;;;;5070012;28;20243;-68
2022/03/21 03:44:12;;;;;;;39.40;9.50;;;;;;;;;;5070568;28;20236;-68
2022/03/21 03:46:39;;;;;;;32.13;7.38;;;;;;;;;;5070211;28;20209;-68
2022/03/21 03:49:07;;;;;;;21.65;6.80;;;;;;;;;;5069971;28;20205;-69
2022/03/21 03:51:34;;;;;;;22.90;6.55;;;;;;;;;;5070105;28;20212;-71
2022/03/21 03:54:03;;;;;;;20.38;5.40;;;;;;;;;;5071840;28;20200;-68
2022/03/21 03:56:31;;;;;;;28.88;6.50;;;;;;;;;;5074060;28;20215;-68
2022/03/21 03:58:58;;;;;;;27.80;6.60;;;;;;;;;;5073564;28;20205;-68
2022/03/21 04:01:27;;;;;;;32.83;7.10;;;;;;;;;;5073341;28;20233;-68
2022/03/21 04:03:54;;;;;;;32.45;8.82;;;;;;;;;;5073645;28;20208;-69
2022/03/21 04:06:23;;;;;;;34.00;8.68;;;;;;;;;;5073682;28;20693;-68
2022/03/21 04:08:53;;;;;;;24.17;6.80;;;;;;;;;;5073320;28;20205;-68
2022/03/21 04:11:23;;;;;;;36.13;9.20;;;;;;;;;;5073332;28;20228;-68
2022/03/21 04:13:51;;;;;;;27.98;8.85;;;;;;;;;;5073578;28;20219;-68
2022/03/21 04:16:19;;;;;;;29.52;7.78;;;;;;;;;;5073229;28;20611;-69
2022/03/21 04:18:48;;;;;;;26.88;7.13;;;;;;;;;;5066323;28;20676;-68
2022/03/21 04:21:15;;;;;;;22.45;7.40;;;;;;;;;;5072841;28;20229;-68
2022/03/21 04:23:43;;;;;;;31.77;8.80;;;;;;;;;;5073203;28;20719;-68
2022/03/21 04:26:12;;;;;;;42.53;8.95;;;;;;;;;;5073714;28;20292;-68
2022/03/21 04:28:41;;;;;;;36.00;8.45;;;;;;;;;;5073066;28;20212;-68
2022/03/21 04:31:08;;;;;;;37.03;10.10;;;;;;;;;;5072901;28;20213;-68
2022/03/21 04:33:35;;;;;;;84.22;23.88;;;;;;;;;;5072810;28;20216;-69
2022/03/21 04:36:03;;;;;;;69.13;22.73;;;;;;;;;;5074294;28;20609;-68
2022/03/21 04:38:31;;;;;;;57.25;18.30;;;;;;;;;;5073891;28;20215;-69
2022/03/21 04:40:58;;;;;;;55.15;18.70;;;;;;;;;;5072730;28;20239;-68
2022/03/21 04:43:26;;;;;;;135.10;41.28;;;;;;;;;;5072753;28;20211;-69
2022/03/21 04:45:54;;;;;;;96.53;27.77;;;;;;;;;;5072948;28;20204;-69
2022/03/21 04:48:22;;;;;;;56.92;19.27;;;;;;;;;;5072805;28;20205;-68
2022/03/21 04:50:49;;;;;;;37.25;10.45;;;;;;;;;;5072898;28;20213;-70
2022/03/21 04:53:18;;;;;;;46.28;10.98;;;;;;;;;;5077862;28;20689;-69
2022/03/21 04:55:46;;;;;;;35.47;12.68;;;;;;;;;;5077423;28;20660;-69
2022/03/21 04:58:13;;;;;;;41.13;13.65;;;;;;;;;;5077372;28;20312;-69
2022/03/21 05:00:44;;;;;;;34.10;12.02;;;;;;;;;;5076802;28;20228;-69
2022/03/21 05:03:12;;;;;;;40.80;12.27;;;;;;;;;;5075700;28;20220;-69
2022/03/21 05:05:40;;;;;;;36.88;11.45;;;;;;;;;;5076438;28;20251;-69
2022/03/21 05:08:07;;;;;;;34.35;10.35;;;;;;;;;;5076410;28;20208;-69
2022/03/21 05:10:35;;;;;;;30.48;12.18;;;;;;;;;;5073774;28;20215;-69
2022/03/21 05:13:03;;;;;;;27.35;8.77;;;;;;;;;;5071889;28;20228;-70
2022/03/21 05:15:30;;;;;;;33.45;10.25;;;;;;;;;;5071876;28;20239;-70
2022/03/21 05:17:58;;;;;;;31.02;10.93;;;;;;;;;;5072180;28;20205;-70
2022/03/21 05:20:27;;;;;;;30.00;9.98;;;;;;;;;;5071771;28;20245;-70
2022/03/21 05:31:10;;;;;;;27.08;10.13;;;;;;;;;;5071527;28;20212;-70
2022/03/21 05:36:25;;;;;;;30.73;11.00;;;;;;;;;;5071603;28;20323;-70
2022/03/21 05:38:52;;;;;;;31.67;10.68;;;;;;;;;;5071916;28;20291;-68
2022/03/21 05:41:20;;;;;;;30.25;11.48;;;;;;;;;;5071242;28;20229;-68
2022/03/21 05:43:47;;;;;;;48.25;21.38;;;;;;;;;;5071293;28;20216;-68
2022/03/21 05:46:16;;;;;;;41.60;17.58;;;;;;;;;;5071415;28;20224;-70
2022/03/21 05:48:53;;;;;;;41.10;15.10;;;;;;;;;;5071135;28;20245;-70
2022/03/21 05:51:22;;;;;;;40.50;15.80;;;;;;;;;;5071432;28;20464;-69
2022/03/21 05:53:52;;;;;;;32.00;13.37;;;;;;;;;;5071115;28;20439;-69
2022/03/21 05:56:19;;;;;;;32.00;11.90;;;;;;;;;;5071243;28;20505;-69
2022/03/21 05:58:48;;;;;;;35.30;13.60;;;;;;;;;;5071283;28;20462;-69
2022/03/21 06:01:22;;;;;;;39.00;13.50;;;;;;;;;;5070680;28;20479;-68
2022/03/21 06:03:50;;;;;;;47.00;17.77;;;;;;;;;;5071084;28;20576;-70
2022/03/21 06:06:17;;;;;;;37.63;15.77;;;;;;;;;;5070860;28;21056;-69
2022/03/21 06:08:45;;;;;;;33.90;14.67;;;;;;;;;;5070843;28;20447;-70
2022/03/21 06:11:14;;;;;;;50.77;24.83;;;;;;;;;;5070642;28;20458;-69
2022/03/21 06:13:43;;;;;;;34.30;14.17;;;;;;;;;;5070759;28;20451;-69
2022/03/21 06:16:11;;;;;;;29.40;12.47;;;;;;;;;;5070738;28;20443;-70
2022/03/21 06:18:39;;;;;;;34.73;14.27;;;;;;;;;;5071032;28;20480;-69
2022/03/21 06:21:08;;;;;;;41.40;15.00;;;;;;;;;;5070641;28;20475;-69
2022/03/21 06:23:35;;;;;;;51.17;15.70;;;;;;;;;;5070835;28;20462;-70
2022/03/21 06:26:03;;;;;;;31.63;12.43;;;;;;;;;;5070700;28;20450;-69
2022/03/21 06:28:32;;;;;;;29.40;12.13;;;;;;;;;;5070578;28;20454;-69
2022/03/21 06:31:00;;;;;;;28.23;12.00;;;;;;;;;;5070275;28;20454;-69
2022/03/21 06:33:29;;;;;;;30.37;11.50;;;;;;;;;;5070762;28;20454;-69
2022/03/21 06:35:57;;;;;;;39.83;10.93;;;;;;;;;;5070651;28;20817;-69
2022/03/21 06:38:25;;;;;;;29.87;12.40;;;;;;;;;;5070603;28;20447;-69
2022/03/21 06:40:53;;;;;;;28.97;11.60;;;;;;;;;;5070311;28;20506;-69
2022/03/21 06:43:22;;;;;;;30.00;11.97;;;;;;;;;;5070201;28;20450;-69
2022/03/21 06:45:51;;;;;;;28.40;10.53;;;;;;;;;;5070812;28;20452;-69
2022/03/21 06:48:19;;;;;;;28.57;10.40;;;;;;;;;;5063801;28;20505;-69
2022/03/21 06:50:47;;;;;;;26.90;11.13;;;;;;;;;;5070420;28;20451;-69
2022/03/21 06:53:14;;;;;;;27.33;11.43;;;;;;;;;;5070177;28;21195;-69
2022/03/21 06:55:42;;;;;;;30.30;11.93;;;;;;;;;;5070460;28;20427;-70
2022/03/21 06:58:11;;;;;;;25.80;10.60;;;;;;;;;;5070307;28;20463;-69
2022/03/21 07:00:40;;;;;;;29.53;12.20;;;;;;;;;;5070255;28;20870;-69
2022/03/21 07:03:09;;;;;;;29.57;12.47;;;;;;;;;;5069967;28;20456;-70
2022/03/21 07:05:36;;;;;;;31.03;13.00;;;;;;;;;;5070277;28;20553;-70
2022/03/21 07:08:05;;;;;;;30.30;12.07;;;;;;;;;;5070159;28;20466;-70
2022/03/21 07:10:33;;;;;;;33.70;14.00;;;;;;;;;;5070447;28;20447;-69
2022/03/21 07:13:01;;;;;;;32.40;14.97;;;;;;;;;;5069837;28;20582;-70
2022/03/21 07:15:29;;;;;;;35.00;15.00;;;;;;;;;;5070131;28;20452;-69
2022/03/21 07:17:56;;;;;;;33.07;16.10;;;;;;;;;;5070079;28;20873;-70
2022/03/21 07:20:27;;;;;;;33.47;16.03;;;;;;;;;;5070058;28;20453;-69
2022/03/21 07:22:54;;;;;;;37.00;15.07;;;;;;;;;;5070193;28;20455;-69
2022/03/21 07:25:22;;;;;;;32.67;15.20;;;;;;;;;;5070114;28;20449;-70
2022/03/21 07:27:50;;;;;;;39.60;17.30;;;;;;;;;;5070259;28;20447;-70
2022/03/21 07:30:18;;;;;;;30.47;15.13;;;;;;;;;;5074030;28;20458;-70
2022/03/21 07:32:46;;;;;;;34.77;15.57;;;;;;;;;;5073941;28;20463;-71
2022/03/21 07:35:14;;;;;;;33.57;16.70;;;;;;;;;;5074031;28;20452;-70
2022/03/21 07:37:43;;;;;;;34.73;16.00;;;;;;;;;;5073762;28;20450;-70
2022/03/21 07:40:11;;;;;;;36.77;15.80;;;;;;;;;;5073912;28;20446;-70
2022/03/21 07:42:40;;;;;;;33.00;14.97;;;;;;;;;;5073584;28;21018;-70
2022/03/21 07:47:53;;;;;;;32.87;15.70;;;;;;;;;;5073695;28;20962;-70
2022/03/21 07:50:23;;;;;;;29.30;15.30;;;;;;;;;;5073735;28;20466;-70
2022/03/21 07:52:52;;;;;;;35.73;15.60;;;;;;;;;;5073868;28;20525;-70
2022/03/21 07:55:20;;;;;;;31.30;17.33;;;;;;;;;;5073284;28;20554;-71
2022/03/21 07:57:48;;;;;;;37.53;16.73;;;;;;;;;;5073352;28;20450;-70
2022/03/21 08:00:16;;;;;;;35.20;16.17;;;;;;;;;;5073270;28;20451;-70
2022/03/21 08:02:45;;;;;;;38.37;16.97;;;;;;;;;;5073437;28;20481;-70
2022/03/21 08:05:14;;;;;;;37.00;13.57;;;;;;;;;;5073044;28;20482;-69
2022/03/21 08:07:41;;;;;;;30.50;14.63;;;;;;;;;;5073373;28;20528;-69
2022/03/21 08:10:11;;;;;;;32.30;13.47;;;;;;;;;;5073256;28;20471;-69
2022/03/21 08:12:42;;;;;;;43.23;15.93;;;;;;;;;;5073100;28;20476;-69
2022/03/21 08:15:11;;;;;;;35.00;14.97;;;;;;;;;;5073002;28;20447;-69
2022/03/21 08:17:48;;;;;;;34.33;13.80;;;;;;;;;;5072662;28;20453;-69
2022/03/21 08:20:16;;;;;;;33.17;14.40;;;;;;;;;;5072590;28;20453;-69
2022/03/21 08:22:44;;;;;;;29.03;12.80;;;;;;;;;;5072817;28;20562;-69
2022/03/21 08:25:14;;;;;;;27.13;12.10;;;;;;;;;;5072643;28;20508;-69
2022/03/21 08:27:41;;;;;;;35.70;13.50;;;;;;;;;;5072912;28;20943;-69
2022/03/21 08:30:09;;;;;;;28.40;10.47;;;;;;;;;;5072989;28;20530;-69
2022/03/21 08:32:40;;;;;;;23.87;8.40;;;;;;;;;;5072754;28;20463;-69
2022/03/21 08:35:08;;;;;;;32.00;10.00;;;;;;;;;;5072910;28;20800;-69
2022/03/21 08:37:35;;;;;;;21.40;7.37;;;;;;;;;;5072725;28;20538;-70
2022/03/21 08:40:03;;;;;;;20.67;6.60;;;;;;;;;;5072794;28;20482;-69
2022/03/21 08:42:32;;;;;;;27.53;9.53;;;;;;;;;;5072759;28;20888;-69
2022/03/21 08:44:59;;;;;;;25.70;9.40;;;;;;;;;;5072299;28;20460;-69
2022/03/21 08:47:27;;;;;;;25.60;8.90;;;;;;;;;;5072434;28;20978;-69
2022/03/21 08:49:55;;;;;;;23.67;7.15;;;;;;;;;;5072301;28;20215;-74
2022/03/21 08:52:22;;;;;;;22.10;5.53;;;;;;;;;;5072562;28;20213;-69
2022/03/21 08:54:50;;;;;;;26.35;8.10;;;;;;;;;;5072546;28;20820;-71
2022/03/21 08:57:18;;;;;;;24.95;8.88;;;;;;;;;;5065293;28;20258;-69
2022/03/21 08:59:47;;;;;;;24.20;6.80;;;;;;;;;;5072388;28;20238;-69
2022/03/21 09:02:15;;;;;;;23.80;8.43;;;;;;;;;;5072113;28;20239;-69
2022/03/21 09:04:42;;;;;;;22.88;6.75;;;;;;;;;;5071956;28;20205;-69
2022/03/21 09:07:10;;;;;;;19.27;5.38;;;;;;;;;;5071918;28;20215;-69
2022/03/21 09:09:37;;;;;;;23.95;7.15;;;;;;;;;;5072272;28;20212;-69
2022/03/21 09:12:05;;;;;;;17.52;4.82;;;;;;;;;;5072093;28;21007;-71
2022/03/21 09:14:32;;;;;;;26.88;8.18;;;;;;;;;;5072126;28;20296;-72
2022/03/21 09:17:01;;;;;;;18.98;5.45;;;;;;;;;;5071677;28;20220;-72
2022/03/21 09:19:29;;;;;;;19.98;6.18;;;;;;;;;;5071888;28;20680;-69
2022/03/21 09:21:57;;;;;;;21.23;7.43;;;;;;;;;;5072110;28;20224;-69
2022/03/21 09:24:26;;;;;;;19.45;5.47;;;;;;;;;;5071750;28;20691;-69
2022/03/21 09:26:53;;;;;;;17.35;3.80;;;;;;;;;;5071787;28;20662;-69
2022/03/21 09:29:21;;;;;;;25.83;5.63;;;;;;;;;;5071498;28;20228;-70
2022/03/21 09:31:48;;;;;;;24.90;6.60;;;;;;;;;;5071470;28;20215;-69
2022/03/21 09:34:18;;;;;;;25.70;5.25;;;;;;;;;;5071837;28;20223;-69
2022/03/21 09:36:45;;;;;;;21.83;6.00;;;;;;;;;;5071601;28;20213;-70
2022/03/21 09:39:14;;;;;;;21.45;5.70;;;;;;;;;;5064787;28;20215;-69
2022/03/21 09:41:42;;;;;;;18.02;4.72;;;;;;;;;;5071278;28;20315;-70
2022/03/21 09:44:10;;;;;;;26.27;6.80;;;;;;;;;;5071320;28;20270;-70
2022/03/21 09:46:39;;;;;;;20.23;4.90;;;;;;;;;;5071566;28;20208;-69
2022/03/21 09:49:08;;;;;;;25.73;7.20;;;;;;;;;;5071278;28;20213;-69
2022/03/21 09:51:36;;;;;;;18.98;5.38;;;;;;;;;;5071020;28;20212;-70
2022/03/21 09:54:04;;;;;;;25.98;5.80;;;;;;;;;;5071277;28;20211;-69
2022/03/21 09:56:31;;;;;;;20.58;6.93;;;;;;;;;;5071077;28;20209;-69
2022/03/21 09:59:00;;;;;;;18.08;4.68;;;;;;;;;;5071209;28;20287;-72
2022/03/21 10:01:28;;;;;;;17.15;4.32;;;;;;;;;;5071000;28;20205;-69
2022/03/21 10:03:56;;;;;;;20.98;6.43;;;;;;;;;;5071051;28;20204;-69
2022/03/21 10:06:31;;;;;;;25.55;7.47;;;;;;;;;;5070847;28;20236;-70
2022/03/21 10:09:10;;;;;;;23.35;7.25;;;;;;;;;;5070862;28;20204;-69
2022/03/21 10:11:39;;;;;;;27.45;6.95;;;;;;;;;;5071327;28;20607;-70
2022/03/21 10:14:24;;;;;;;23.13;6.55;;;;;;;;;;5070783;28;20295;-70
2022/03/21 10:16:52;;;;;;;20.13;6.28;;;;;;;;;;5064830;28;20204;-69
2022/03/21 10:19:19;;;;;;;28.75;6.80;;;;;;;;;;5070615;28;20212;-69
2022/03/21 10:22:01;;;;;;;25.55;8.15;;;;;;;;;;5070864;28;20713;-69
2022/03/21 10:24:34;;;;;;;25.80;8.43;;;;;;;;;;5063898;28;20746;-69
2022/03/21 10:27:02;;;;;;;27.52;5.63;;;;;;;;;;5070570;28;20214;-70
2022/03/21 10:29:31;;;;;;;28.88;7.90;;;;;;;;;;5070567;28;20208;-70
2022/03/21 10:31:59;;;;;;;22.75;6.15;;;;;;;;;;5070514;28;20578;-69
2022/03/21 10:34:33;;;;;;;25.60;9.65;;;;;;;;;;5070837;28;20231;-70
2022/03/21 10:37:02;;;;;;;26.13;7.57;;;;;;;;;;5070533;28;20214;-69
2022/03/21 10:39:32;;;;;;;29.35;8.55;;;;;;;;;;5070657;28;20279;-69
2022/03/21 10:42:00;;;;;;;33.05;7.65;;;;;;;;;;5070408;28;20228;-69
2022/03/21 10:44:28;;;;;;;25.35;9.10;;;;;;;;;;5070311;28;20295;-69
2022/03/21 10:46:56;;;;;;;23.45;8.57;;;;;;;;;;5070372;28;20208;-70
2022/03/21 10:49:29;;;;;;;22.02;5.95;;;;;;;;;;5070320;28;20209;-70
2022/03/21 10:51:57;;;;;;;24.55;7.55;;;;;;;;;;5070445;28;20742;-70
2022/03/21 10:54:42;;;;;;;23.38;8.55;;;;;;;;;;5070746;28;20209;-69
2022/03/21 10:57:10;;;;;;;22.48;8.05;;;;;;;;;;5070079;28;20213;-70
2022/03/21 10:59:37;;;;;;;20.38;5.22;;;;;;;;;;5070565;28;20573;-69
2022/03/21 11:02:12;;;;;;;20.30;6.55;;;;;;;;;;5063562;28;20232;-69
2022/03/21 11:04:42;;;;;;;24.77;7.57;;;;;;;;;;5066858;28;20211;-68
2022/03/21 11:07:11;;;;;;;21.60;7.95;;;;;;;;;;5074250;28;20607;-69
2022/03/21 11:09:39;;;;;;;19.73;4.57;;;;;;;;;;5074332;28;20234;-69
2022/03/21 11:12:09;;;;;;;23.80;7.13;;;;;;;;;;5074471;28;20740;-71
2022/03/21 11:14:37;;;;;;;23.25;7.15;;;;;;;;;;5074795;28;20212;-71
2022/03/21 11:17:06;;;;;;;26.92;7.32;;;;;;;;;;5074119;28;20208;-71
2022/03/21 11:19:33;;;;;;;21.40;5.50;;;;;;;;;;5074237;28;20208;-71
2022/03/21 11:22:01;;;;;;;22.38;8.07;;;;;;;;;;5074030;28;20208;-71
2022/03/21 11:24:29;;;;;;;23.55;7.18;;;;;;;;;;5074013;28;20204;-71
2022/03/21 11:27:01;;;;;;;25.60;7.88;;;;;;;;;;5074149;28;20222;-69
2022/03/21 11:29:36;;;;;;;25.65;7.32;;;;;;;;;;5067680;28;20205;-69
2022/03/21 11:32:09;;;;;;;19.08;4.40;;;;;;;;;;5068097;28;20684;-68
2022/03/21 11:34:43;;;;;;;21.75;6.72;;;;;;;;;;5067490;28;20204;-72
2022/03/21 11:37:25;;;;;;;22.30;6.10;;;;;;;;;;5067522;28;20608;-71
2022/03/21 11:40:08;;;;;;;18.23;5.03;;;;;;;;;;5068924;28;20204;-71
2022/03/21 11:42:35;;;;;;;24.90;6.72;;;;;;;;;;5073479;28;20232;-72
2022/03/21 11:45:21;;;;;;;22.70;5.80;;;;;;;;;;5073310;28;20220;-71
2022/03/21 11:47:49;;;;;;;19.92;5.78;;;;;;;;;;5073510;28;20215;-69
2022/03/21 11:50:27;;;;;;;22.25;6.07;;;;;;;;;;5073690;28;20209;-69
2022/03/21 11:53:08;;;;;;;19.60;6.53;;;;;;;;;;5073545;28;20724;-70
2022/03/21 11:55:38;;;;;;;30.53;7.93;;;;;;;;;;5073437;28;20239;-72
2022/03/21 11:58:33;;;;;;;18.73;4.80;;;;;;;;;;5073806;28;20471;-71
2022/03/21 12:01:04;;;;;;;20.42;7.10;;;;;;;;;;5037600;28;20458;-70
2022/03/21 12:03:32;;;;;;;23.90;6.35;;;;;;;;;;5073321;28;20233;-69
2022/03/21 12:06:23;;;;;;;18.97;5.27;;;;;;;;;;5073361;28;20611;-69
2022/03/21 12:08:51;;;;;;;22.43;5.67;;;;;;;;;;5067526;28;20979;-69
2022/03/21 12:11:49;;;;;;;21.10;5.10;;;;;;;;;;5066688;28;20450;-71
2022/03/21 12:14:23;;;;;;;20.07;6.00;;;;;;;;;;5069381;28;20454;-69
2022/03/21 12:17:26;;;;;;;22.30;6.73;;;;;;;;;;5073089;28;20459;-69
2022/03/21 12:20:02;;;;;;;22.97;6.97;;;;;;;;;;5073098;28;20469;-69
2022/03/21 12:22:36;;;;;;;19.60;5.00;;;;;;;;;;5073130;28;20549;-69
2022/03/21 12:25:05;;;;;;;19.77;6.30;;;;;;;;;;5073033;28;20473;-71
2022/03/21 12:27:33;;;;;;;19.07;4.73;;;;;;;;;;5072893;28;20463;-69
2022/03/21 12:30:15;;;;;;;17.40;4.60;;;;;;;;;;5072975;28;20449;-69
2022/03/21 12:32:49;;;;;;;17.07;5.07;;;;;;;;;;5060328;28;20457;-69
2022/03/21 12:35:31;;;;;;;16.67;3.87;;;;;;;;;;5072583;28;20954;-69
2022/03/21 12:38:04;;;;;;;15.13;3.50;;;;;;;;;;5072542;28;20892;-69
2022/03/21 12:40:31;;;;;;;17.07;4.47;;;;;;;;;;5072762;28;20442;-71
2022/03/21 12:42:59;;;;;;;16.53;3.63;;;;;;;;;;5072598;28;20487;-71
2022/03/21 12:45:26;;;;;;;17.37;5.03;;;;;;;;;;5072518;28;20458;-71
2022/03/21 12:47:54;;;;;;;17.63;3.43;;;;;;;;;;5072824;28;20445;-71
2022/03/21 12:50:22;;;;;;;22.80;4.70;;;;;;;;;;5072703;28;20447;-71
2022/03/21 12:52:53;;;;;;;15.63;4.10;;;;;;;;;;5072544;28;20446;-68
2022/03/21 12:55:23;;;;;;;17.20;4.50;;;;;;;;;;5072329;28;20218;-68
2022/03/21 12:57:54;;;;;;;17.37;3.40;;;;;;;;;;5072281;28;20441;-68
2022/03/21 13:00:23;;;;;;;16.37;4.20;;;;;;;;;;5072250;28;20960;-69
2022/03/21 13:02:55;;;;;;;17.03;4.60;;;;;;;;;;5072138;28;20482;-68
2022/03/21 13:10:56;;;;;;;16.27;3.67;;;;;;;;;;5072222;28;20458;-70
2022/03/21 13:13:24;;;;;;;16.55;3.40;;;;;;;;;;5072069;28;20248;-71
2022/03/21 13:16:05;;;;;;;16.48;3.40;;;;;;;;;;5072249;28;20209;-71
2022/03/21 13:18:39;;;;;;;14.80;3.03;;;;;;;;;;5071895;28;20669;-71
2022/03/21 13:21:07;;;;;;;16.45;3.78;;;;;;;;;;5071899;28;20221;-71
2022/03/21 13:23:35;;;;;;;16.63;3.70;;;;;;;;;;5071978;28;20232;-71
2022/03/21 13:26:11;;;;;;;16.20;4.50;;;;;;;;;;5070844;28;20209;-71
2022/03/21 13:28:39;;;;;;;13.90;2.55;;;;;;;;;;5072045;28;20205;-71
2022/03/21 13:31:09;;;;;;;16.58;3.78;;;;;;;;;;5071477;28;20219;-71
2022/03/21 13:33:37;;;;;;;16.10;3.55;;;;;;;;;;5071589;28;20213;-70
2022/03/21 13:36:05;;;;;;;14.75;2.67;;;;;;;;;;5071801;28;20208;-71
2022/03/21 13:38:34;;;;;;;14.38;3.78;;;;;;;;;;5071481;28;20208;-71
2022/03/21 13:41:02;;;;;;;21.55;3.60;;;;;;;;;;5071439;28;20224;-71
2022/03/21 13:43:33;;;;;;;15.50;3.65;;;;;;;;;;5071281;28;20228;-71
2022/03/21 13:46:01;;;;;;;14.75;3.63;;;;;;;;;;5071279;28;20587;-68
2022/03/21 13:48:37;;;;;;;19.25;4.90;;;;;;;;;;5071538;28;20260;-71
2022/03/21 13:51:07;;;;;;;19.38;5.13;;;;;;;;;;5071306;28;20265;-71
2022/03/21 13:53:37;;;;;;;16.88;4.43;;;;;;;;;;5071661;28;20200;-68
2022/03/21 13:56:05;;;;;;;16.53;3.50;;;;;;;;;;5071171;28;20266;-71
2022/03/21 13:58:36;;;;;;;16.27;4.32;;;;;;;;;;5071448;28;20826;-71
2022/03/21 14:01:05;;;;;;;15.90;3.95;;;;;;;;;;5071310;28;20204;-70
2022/03/21 14:03:34;;;;;;;18.85;3.60;;;;;;;;;;5071192;28;20319;-71
2022/03/21 14:06:01;;;;;;;27.60;4.38;;;;;;;;;;5071184;28;20260;-71
2022/03/21 14:08:29;;;;;;;18.17;4.80;;;;;;;;;;5071236;28;20300;-71
2022/03/21 14:11:02;;;;;;;18.33;4.85;;;;;;;;;;5070868;28;20454;-71
2022/03/21 14:13:30;;;;;;;18.45;4.72;;;;;;;;;;5064533;28;20255;-71
2022/03/21 14:16:01;;;;;;;16.33;3.75;;;;;;;;;;5071062;28;20197;-71
2022/03/21 14:18:29;;;;;;;18.83;4.22;;;;;;;;;;5070839;28;20307;-71
2022/03/21 14:20:57;;;;;;;16.30;3.80;;;;;;;;;;5070805;28;20212;-71
2022/03/21 14:23:24;;;;;;;16.67;3.40;;;;;;;;;;5070550;28;20237;-71
2022/03/21 14:28:37;;;;;;;19.63;4.85;;;;;;;;;;5070807;28;20202;-71
2022/03/21 14:31:06;;;;;;;17.80;4.88;;;;;;;;;;5070595;28;20200;-71
2022/03/21 14:33:35;;;;;;;18.60;4.60;;;;;;;;;;5070619;28;20228;-71
2022/03/21 14:36:03;;;;;;;19.88;5.60;;;;;;;;;;5070940;28;20232;-70
2022/03/21 14:38:30;;;;;;;17.25;4.30;;;;;;;;;;5070646;28;20205;-70
2022/03/21 14:40:58;;;;;;;21.20;4.10;;;;;;;;;;5070680;28;20208;-71
2022/03/21 14:43:25;;;;;;;13.43;2.15;;;;;;;;;;5070579;28;20233;-71
2022/03/21 14:45:53;;;;;;;19.08;6.50;;;;;;;;;;5070406;28;20248;-70
2022/03/21 14:48:24;;;;;;;17.55;3.92;;;;;;;;;;5070356;28;20209;-71
2022/03/21 14:50:52;;;;;;;20.23;4.18;;;;;;;;;;5070688;28;20739;-71
2022/03/21 14:53:19;;;;;;;16.40;4.18;;;;;;;;;;5070310;28;20209;-71
2022/03/21 14:55:47;;;;;;;18.85;4.22;;;;;;;;;;5070350;28;20213;-71
2022/03/21 14:58:15;;;;;;;19.05;4.70;;;;;;;;;;5070418;28;20296;-71
2022/03/21 15:00:42;;;;;;;16.42;4.70;;;;;;;;;;5070275;28;20198;-72
2022/03/21 15:03:10;;;;;;;22.23;5.47;;;;;;;;;;5070292;28;20209;-71